createdAt,value
2018-11-29T00:00:56.345Z,1.95
2018-11-29T00:02:04.211Z,1.98
2018-11-29T00:03:12.382Z,2.02
2018-11-29T00:04:20.428Z,2.05
2018-11-29T00:05:28.531Z,2.03
2018-11-29T00:06:36.522Z,1.98
2018-11-29T00:07:44.526Z,2.02
2018-11-29T00:08:52.636Z,2.03
2018-11-29T00:10:00.754Z,2.09
2018-11-29T00:11:08.706Z,2.18
2018-11-29T00:12:16.744Z,2.02
2018-11-29T00:13:24.877Z,2.16
2018-11-29T00:14:33.090Z,2.17
2018-11-29T00:15:40.985Z,2.14
2018-11-29T00:16:49.091Z,2.27
2018-11-29T00:17:57.067Z,2.20
2018-11-29T00:19:05.205Z,2.17
2018-11-29T00:20:13.203Z,2.28
2018-11-29T00:21:21.339Z,2.25
2018-11-29T00:22:29.264Z,2.21
2018-11-29T00:23:37.446Z,2.36
2018-11-29T00:24:45.399Z,2.23
2018-11-29T00:25:53.533Z,2.27
2018-11-29T00:27:01.657Z,2.24
2018-11-29T00:28:09.866Z,2.27
2018-11-29T00:29:17.741Z,2.24
2018-11-29T00:30:25.674Z,2.24
2018-11-29T00:31:33.865Z,2.25
2018-11-29T00:32:41.907Z,2.31
2018-11-29T00:33:49.832Z,2.34
2018-11-29T00:34:57.991Z,2.28
2018-11-29T00:36:06.100Z,2.41
2018-11-29T00:37:14.128Z,2.31
2018-11-29T00:38:22.252Z,2.38
2018-11-29T00:39:30.244Z,2.36
2018-11-29T00:40:38.300Z,2.38
2018-11-29T00:41:46.349Z,2.43
2018-11-29T00:42:54.336Z,2.49
2018-11-29T00:44:02.373Z,2.49
2018-11-29T00:45:10.520Z,2.54
2018-11-29T00:46:18.636Z,2.57
2018-11-29T00:47:26.646Z,2.52
2018-11-29T00:48:34.690Z,2.48
2018-11-29T00:49:42.734Z,2.56
2018-11-29T00:50:51.865Z,2.57
2018-11-29T00:51:58.756Z,2.52
2018-11-29T00:53:06.829Z,2.53
2018-11-29T00:54:14.927Z,2.52
2018-11-29T00:55:22.937Z,2.46
2018-11-29T00:56:31.037Z,2.59
2018-11-29T00:57:39.049Z,2.52
2018-11-29T00:58:47.202Z,2.60
2018-11-29T00:59:55.280Z,2.56
2018-11-29T01:01:03.269Z,2.56
2018-11-29T01:02:11.432Z,2.57
2018-11-29T01:03:19.445Z,2.54
2018-11-29T01:04:27.512Z,2.56
2018-11-29T01:05:35.504Z,2.59
2018-11-29T01:06:43.498Z,2.60
2018-11-29T01:07:51.586Z,2.74
2018-11-29T01:08:59.641Z,2.71
2018-11-29T01:10:07.809Z,2.61
2018-11-29T01:11:15.806Z,2.66
2018-11-29T01:12:23.804Z,2.61
2018-11-29T01:13:32.067Z,2.77
2018-11-29T01:14:40.099Z,2.67
2018-11-29T01:15:48.145Z,2.74
2018-11-29T01:16:56.075Z,2.67
2018-11-29T01:18:04.253Z,2.72
2018-11-29T01:19:12.264Z,2.77
2018-11-29T01:20:20.209Z,2.67
2018-11-29T01:21:28.309Z,2.77
2018-11-29T01:22:36.368Z,2.71
2018-11-29T01:23:44.392Z,2.71
2018-11-29T01:24:52.535Z,2.77
2018-11-29T01:26:00.574Z,2.72
2018-11-29T01:27:08.668Z,2.71
2018-11-29T01:28:16.769Z,2.75
2018-11-29T01:29:24.818Z,2.74
2018-11-29T01:30:32.846Z,2.72
2018-11-29T01:31:40.909Z,2.77
2018-11-29T01:32:48.959Z,2.79
2018-11-29T01:33:57.105Z,2.82
2018-11-29T01:35:05.162Z,2.78
2018-11-29T01:36:13.029Z,2.77
2018-11-29T01:37:21.218Z,2.75
2018-11-29T01:38:29.221Z,2.79
2018-11-29T01:39:37.367Z,2.84
2018-11-29T01:40:45.424Z,2.82
2018-11-29T01:41:53.294Z,2.82
2018-11-29T01:43:01.434Z,2.78
2018-11-29T01:44:09.504Z,2.82
2018-11-29T01:45:17.605Z,2.72
2018-11-29T01:46:25.604Z,2.74
2018-11-29T01:47:33.766Z,2.75
2018-11-29T01:48:41.698Z,2.79
2018-11-29T01:49:49.770Z,2.82
2018-11-29T01:50:57.791Z,2.82
2018-11-29T01:52:05.924Z,2.79
2018-11-29T01:53:13.974Z,2.75
2018-11-29T01:54:22.156Z,2.71
2018-11-29T01:55:30.008Z,2.71
2018-11-29T01:56:38.070Z,2.78
2018-11-29T01:57:46.242Z,2.74
2018-11-29T01:58:54.336Z,2.84
2018-11-29T02:00:02.367Z,2.69
2018-11-29T02:01:10.519Z,2.82
2018-11-29T02:02:18.362Z,2.72
2018-11-29T02:03:26.534Z,2.77
2018-11-29T02:04:34.685Z,2.75
2018-11-29T02:05:42.588Z,2.75
2018-11-29T02:06:50.665Z,2.69
2018-11-29T02:07:58.750Z,2.71
2018-11-29T02:09:06.818Z,2.78
2018-11-29T02:10:14.871Z,2.82
2018-11-29T02:11:22.957Z,2.79
2018-11-29T02:12:31.008Z,2.84
2018-11-29T02:13:39.051Z,2.77
2018-11-29T02:14:47.019Z,2.87
2018-11-29T02:15:55.176Z,2.81
2018-11-29T02:17:03.300Z,2.77
2018-11-29T02:18:11.283Z,2.87
2018-11-29T02:19:19.345Z,2.77
2018-11-29T02:20:27.355Z,2.85
2018-11-29T02:21:35.453Z,2.78
2018-11-29T02:22:43.590Z,2.79
2018-11-29T02:23:51.544Z,2.75
2018-11-29T02:24:59.606Z,2.93
2018-11-29T02:26:07.772Z,2.84
2018-11-29T02:27:15.698Z,2.85
2018-11-29T02:28:23.706Z,2.93
2018-11-29T02:29:31.771Z,2.87
2018-11-29T02:30:39.838Z,2.89
2018-11-29T02:31:47.892Z,2.92
2018-11-29T02:32:55.938Z,2.90
2018-11-29T02:34:03.989Z,2.89
2018-11-29T02:35:12.044Z,2.87
2018-11-29T02:36:20.153Z,2.84
2018-11-29T02:37:28.168Z,2.81
2018-11-29T02:38:36.234Z,2.84
2018-11-29T02:39:44.285Z,2.90
2018-11-29T02:40:52.364Z,2.84
2018-11-29T02:42:00.489Z,2.81
2018-11-29T02:43:08.472Z,2.93
2018-11-29T02:44:16.527Z,2.93
2018-11-29T02:45:24.610Z,2.84
2018-11-29T02:46:32.641Z,2.84
2018-11-29T02:47:40.725Z,2.74
2018-11-29T02:48:48.772Z,2.87
2018-11-29T02:49:56.842Z,2.78
2018-11-29T02:51:04.872Z,2.78
2018-11-29T02:52:12.937Z,2.87
2018-11-29T02:53:20.983Z,2.85
2018-11-29T02:54:29.042Z,2.92
2018-11-29T02:55:37.117Z,2.84
2018-11-29T02:56:45.198Z,2.90
2018-11-29T02:57:53.216Z,2.87
2018-11-29T02:59:01.290Z,2.87
2018-11-29T03:00:09.348Z,2.90
2018-11-29T03:01:17.414Z,2.93
2018-11-29T03:02:25.461Z,2.81
2018-11-29T03:03:33.500Z,2.89
2018-11-29T03:04:41.571Z,2.89
2018-11-29T03:05:49.642Z,2.84
2018-11-29T03:06:57.726Z,2.90
2018-11-29T03:08:05.756Z,2.93
2018-11-29T03:09:13.824Z,2.96
2018-11-29T03:10:21.858Z,2.87
2018-11-29T03:11:29.927Z,2.87
2018-11-29T03:12:37.977Z,2.93
2018-11-29T03:13:46.048Z,2.85
2018-11-29T03:14:54.091Z,2.92
2018-11-29T03:16:02.182Z,2.81
2018-11-29T03:17:10.263Z,2.87
2018-11-29T03:18:18.273Z,2.81
2018-11-29T03:19:26.339Z,2.85
2018-11-29T03:20:34.415Z,2.87
2018-11-29T03:21:42.442Z,2.84
2018-11-29T03:22:50.509Z,2.89
2018-11-29T03:23:58.574Z,2.87
2018-11-29T03:25:06.662Z,2.74
2018-11-29T03:26:14.677Z,2.81
2018-11-29T03:27:22.751Z,2.79
2018-11-29T03:28:30.809Z,2.79
2018-11-29T03:29:38.963Z,2.85
2018-11-29T03:30:47.012Z,2.89
2018-11-29T03:31:54.983Z,2.89
2018-11-29T03:33:03.141Z,2.82
2018-11-29T03:34:11.212Z,2.81
2018-11-29T03:35:19.252Z,2.79
2018-11-29T03:36:27.333Z,2.81
2018-11-29T03:37:35.464Z,2.79
2018-11-29T03:38:43.435Z,2.71
2018-11-29T03:39:51.499Z,2.77
2018-11-29T03:40:59.552Z,2.72
2018-11-29T03:42:07.643Z,2.77
2018-11-29T03:43:15.562Z,2.77
2018-11-29T03:44:23.725Z,2.81
2018-11-29T03:45:31.740Z,2.72
2018-11-29T03:46:39.819Z,2.71
2018-11-29T03:47:47.799Z,2.67
2018-11-29T03:48:55.850Z,2.67
2018-11-29T03:50:03.911Z,2.72
2018-11-29T03:51:12.028Z,2.71
2018-11-29T03:52:20.037Z,2.74
2018-11-29T03:53:28.215Z,2.59
2018-11-29T03:54:36.255Z,2.46
2018-11-29T03:55:44.383Z,2.48
2018-11-29T03:56:52.371Z,2.64
2018-11-29T03:58:00.443Z,2.48
2018-11-29T03:59:08.377Z,2.46
2018-11-29T04:00:16.421Z,2.46
2018-11-29T04:01:24.484Z,2.46
2018-11-29T04:02:32.640Z,2.41
2018-11-29T04:03:40.677Z,2.39
2018-11-29T04:04:48.806Z,2.34
2018-11-29T04:05:56.835Z,2.27
2018-11-29T04:07:04.841Z,2.38
2018-11-29T04:08:12.949Z,2.35
2018-11-29T04:09:21.033Z,2.25
2018-11-29T04:10:29.175Z,2.23
2018-11-29T04:11:37.006Z,2.23
2018-11-29T04:12:45.158Z,2.25
2018-11-29T04:13:53.356Z,2.23
2018-11-29T04:15:01.293Z,2.12
2018-11-29T04:16:09.230Z,2.12
2018-11-29T04:17:17.414Z,2.16
2018-11-29T04:18:25.402Z,2.18
2018-11-29T04:19:33.504Z,1.99
2018-11-29T04:20:41.473Z,1.99
2018-11-29T04:21:49.583Z,2.06
2018-11-29T04:22:57.699Z,2.09
2018-11-29T04:24:05.705Z,2.05
2018-11-29T04:25:13.708Z,2.05
2018-11-29T04:26:21.859Z,2.00
2018-11-29T04:27:29.910Z,2.02
2018-11-29T04:28:37.997Z,2.05
2018-11-29T04:29:46.053Z,2.07
2018-11-29T04:30:54.132Z,2.00
2018-11-29T04:32:02.046Z,1.86
2018-11-29T04:33:10.189Z,1.84
2018-11-29T04:34:18.155Z,1.84
2018-11-29T04:35:26.340Z,1.81
2018-11-29T04:36:34.374Z,1.79
2018-11-29T04:37:42.383Z,1.72
2018-11-29T04:38:50.481Z,1.69
2018-11-29T04:39:58.556Z,1.73
2018-11-29T04:41:06.704Z,1.72
2018-11-29T04:42:14.663Z,1.68
2018-11-29T04:43:22.803Z,1.66
2018-11-29T04:44:30.768Z,1.68
2018-11-29T04:45:38.827Z,1.60
2018-11-29T04:46:46.898Z,1.58
2018-11-29T04:47:54.917Z,1.54
2018-11-29T04:49:02.912Z,1.54
2018-11-29T04:50:10.977Z,1.44
2018-11-29T04:51:19.117Z,1.45
2018-11-29T04:52:27.214Z,1.50
2018-11-29T04:53:35.132Z,1.52
2018-11-29T04:54:43.376Z,1.47
2018-11-29T04:55:51.265Z,1.44
2018-11-29T04:56:59.403Z,1.48
2018-11-29T04:58:07.463Z,1.47
2018-11-29T04:59:15.584Z,1.48
2018-11-29T05:00:23.475Z,1.48
2018-11-29T05:01:31.655Z,1.47
2018-11-29T05:02:39.723Z,1.51
2018-11-29T05:03:47.721Z,1.48
2018-11-29T05:04:57.972Z,1.44
2018-11-29T05:06:03.777Z,1.44
2018-11-29T05:07:11.809Z,1.44
2018-11-29T05:08:19.966Z,1.45
2018-11-29T05:09:28.051Z,1.54
2018-11-29T05:10:36.041Z,1.52
2018-11-29T05:11:44.120Z,1.55
2018-11-29T05:12:52.711Z,1.48
2018-11-29T05:14:00.147Z,1.54
2018-11-29T05:15:08.406Z,1.55
2018-11-29T05:16:16.350Z,1.50
2018-11-29T05:17:24.313Z,1.50
2018-11-29T05:18:32.492Z,1.58
2018-11-29T05:19:40.580Z,1.62
2018-11-29T05:20:48.501Z,1.54
2018-11-29T05:21:56.685Z,1.52
2018-11-29T05:23:04.628Z,1.52
2018-11-29T05:24:12.789Z,1.51
2018-11-29T05:25:20.954Z,1.52
2018-11-29T05:26:28.915Z,1.51
2018-11-29T05:27:36.912Z,1.44
2018-11-29T05:28:45.112Z,1.42
2018-11-29T05:29:52.958Z,1.42
2018-11-29T05:31:01.023Z,1.33
2018-11-29T05:32:09.196Z,1.42
2018-11-29T05:33:17.178Z,1.36
2018-11-29T05:34:25.306Z,1.23
2018-11-29T05:35:33.548Z,1.26
2018-11-29T05:36:41.417Z,1.18
2018-11-29T05:37:49.422Z,1.14
2018-11-29T05:38:57.409Z,1.14
2018-11-29T05:40:05.460Z,1.22
2018-11-29T05:41:13.626Z,1.08
2018-11-29T05:42:21.617Z,1.08
2018-11-29T05:43:29.820Z,0.91
2018-11-29T05:44:37.752Z,1.00
2018-11-29T05:45:45.822Z,1.09
2018-11-29T05:46:53.863Z,1.08
2018-11-29T05:48:02.034Z,1.06
2018-11-29T05:49:10.034Z,1.09
2018-11-29T05:50:18.098Z,1.08
2018-11-29T05:51:26.156Z,1.06
2018-11-29T05:52:37.014Z,0.94
2018-11-29T05:53:45.045Z,1.00
2018-11-29T05:54:53.163Z,1.04
2018-11-29T05:56:01.080Z,1.02
2018-11-29T05:57:09.222Z,1.05
2018-11-29T05:58:17.290Z,1.08
2018-11-29T05:59:25.289Z,0.91
2018-11-29T06:00:33.508Z,1.11
2018-11-29T06:01:41.465Z,1.02
2018-11-29T06:02:49.501Z,1.14
2018-11-29T06:03:57.586Z,1.09
2018-11-29T06:05:05.535Z,1.04
2018-11-29T06:06:13.689Z,1.05
2018-11-29T06:07:21.681Z,1.08
2018-11-29T06:08:29.792Z,1.16
2018-11-29T06:09:37.862Z,1.15
2018-11-29T06:10:45.923Z,1.11
2018-11-29T06:11:53.836Z,1.11
2018-11-29T06:13:01.989Z,1.02
2018-11-29T06:14:10.142Z,1.09
2018-11-29T06:15:18.181Z,1.05
2018-11-29T06:16:26.230Z,1.06
2018-11-29T06:17:34.130Z,1.02
2018-11-29T06:18:42.363Z,1.04
2018-11-29T06:19:50.460Z,1.00
2018-11-29T06:20:58.445Z,1.02
2018-11-29T06:22:06.586Z,0.90
2018-11-29T06:23:14.429Z,0.90
2018-11-29T06:24:22.631Z,0.91
2018-11-29T06:25:30.562Z,0.91
2018-11-29T06:26:38.613Z,0.98
2018-11-29T06:27:46.707Z,0.90
2018-11-29T06:28:54.827Z,1.00
2018-11-29T06:30:02.828Z,0.96
2018-11-29T06:31:10.844Z,0.97
2018-11-29T06:32:19.002Z,0.88
2018-11-29T06:33:26.937Z,0.91
2018-11-29T06:34:35.002Z,1.00
2018-11-29T06:35:43.154Z,0.98
2018-11-29T06:36:51.243Z,0.88
2018-11-29T06:37:59.190Z,1.04
2018-11-29T06:39:07.320Z,0.97
2018-11-29T06:40:15.281Z,0.97
2018-11-29T06:41:23.391Z,1.00
2018-11-29T06:42:31.386Z,1.00
2018-11-29T06:43:39.537Z,1.04
2018-11-29T06:44:47.621Z,1.06
2018-11-29T06:45:55.624Z,0.97
2018-11-29T06:47:03.739Z,1.06
2018-11-29T06:48:11.779Z,1.05
2018-11-29T06:49:19.717Z,0.97
2018-11-29T06:50:27.884Z,0.91
2018-11-29T06:51:35.840Z,0.91
2018-11-29T06:52:44.083Z,0.87
2018-11-29T06:53:52.180Z,0.88
2018-11-29T06:55:00.085Z,0.88
2018-11-29T06:56:08.138Z,0.84
2018-11-29T06:57:16.294Z,0.80
2018-11-29T06:58:24.216Z,0.84
2018-11-29T06:59:32.351Z,0.73
2018-11-29T07:00:40.479Z,0.75
2018-11-29T07:01:48.494Z,0.66
2018-11-29T07:02:56.518Z,0.72
2018-11-29T07:04:04.577Z,0.78
2018-11-29T07:05:12.580Z,0.79
2018-11-29T07:06:20.704Z,0.70
2018-11-29T07:07:28.924Z,0.72
2018-11-29T07:08:36.798Z,0.70
2018-11-29T07:09:44.870Z,0.73
2018-11-29T07:10:52.878Z,0.83
2018-11-29T07:12:00.895Z,0.84
2018-11-29T07:13:08.986Z,0.83
2018-11-29T07:14:17.081Z,0.86
2018-11-29T07:15:25.040Z,0.84
2018-11-29T07:16:33.206Z,0.79
2018-11-29T07:17:41.226Z,0.87
2018-11-29T07:18:49.320Z,0.80
2018-11-29T07:19:57.258Z,0.80
2018-11-29T07:21:05.418Z,0.79
2018-11-29T07:22:13.508Z,0.90
2018-11-29T07:23:21.439Z,0.86
2018-11-29T07:24:29.628Z,0.84
2018-11-29T07:25:37.545Z,0.84
2018-11-29T07:26:45.671Z,0.88
2018-11-29T07:27:53.751Z,0.96
2018-11-29T07:29:01.813Z,0.91
2018-11-29T07:30:09.879Z,0.86
2018-11-29T07:31:17.870Z,0.87
2018-11-29T07:32:25.999Z,0.90
2018-11-29T07:33:33.947Z,0.90
2018-11-29T07:34:42.019Z,0.87
2018-11-29T07:35:50.171Z,0.94
2018-11-29T07:36:58.124Z,0.94
2018-11-29T07:38:06.229Z,1.00
2018-11-29T07:39:14.334Z,0.94
2018-11-29T07:40:22.340Z,1.05
2018-11-29T07:41:30.441Z,1.00
2018-11-29T07:42:38.509Z,1.04
2018-11-29T07:43:46.583Z,1.16
2018-11-29T07:44:54.643Z,1.08
2018-11-29T07:46:02.578Z,1.14
2018-11-29T07:47:10.754Z,1.16
2018-11-29T07:48:18.773Z,1.18
2018-11-29T07:49:26.859Z,1.12
2018-11-29T07:50:34.990Z,1.18
2018-11-29T07:51:42.957Z,1.22
2018-11-29T07:52:54.103Z,1.37
2018-11-29T07:54:02.187Z,1.52
2018-11-29T07:55:07.134Z,1.47
2018-11-29T07:56:15.165Z,1.58
2018-11-29T07:57:23.237Z,1.51
2018-11-29T07:58:31.277Z,1.62
2018-11-29T07:59:39.307Z,1.65
2018-11-29T08:00:47.429Z,1.69
2018-11-29T08:01:55.567Z,1.73
2018-11-29T08:03:03.547Z,1.80
2018-11-29T08:04:11.552Z,1.88
2018-11-29T08:05:19.658Z,1.84
2018-11-29T08:06:27.650Z,1.93
2018-11-29T08:07:35.800Z,2.00
2018-11-29T08:08:43.851Z,1.90
2018-11-29T08:09:51.919Z,2.00
2018-11-29T08:10:59.993Z,2.03
2018-11-29T08:12:07.982Z,2.06
2018-11-29T08:13:16.557Z,2.17
2018-11-29T08:14:24.712Z,2.21
2018-11-29T08:15:32.864Z,2.17
2018-11-29T08:16:40.835Z,2.27
2018-11-29T08:17:48.869Z,2.34
2018-11-29T08:18:56.952Z,2.35
2018-11-29T08:20:04.918Z,2.54
2018-11-29T08:21:12.968Z,2.63
2018-11-29T08:22:21.012Z,2.63
2018-11-29T08:23:29.068Z,2.74
2018-11-29T08:24:37.127Z,2.72
2018-11-29T08:25:45.205Z,2.78
2018-11-29T08:26:53.257Z,2.75
2018-11-29T08:28:01.303Z,2.81
2018-11-29T08:29:09.365Z,2.78
2018-11-29T08:30:17.439Z,2.82
2018-11-29T08:31:25.489Z,2.69
2018-11-29T08:32:33.541Z,2.79
2018-11-29T08:33:41.604Z,2.79
2018-11-29T08:34:49.665Z,2.89
2018-11-29T08:35:57.752Z,2.97
2018-11-29T08:37:05.785Z,3.11
2018-11-29T08:38:13.831Z,3.28
2018-11-29T08:39:21.911Z,3.36
2018-11-29T08:40:29.940Z,3.42
2018-11-29T08:41:38.015Z,3.57
2018-11-29T08:42:46.078Z,3.52
2018-11-29T08:43:54.135Z,3.54
2018-11-29T08:45:02.194Z,3.51
2018-11-29T08:46:10.228Z,3.58
2018-11-29T08:47:18.309Z,3.33
2018-11-29T08:48:26.360Z,3.43
2018-11-29T08:49:34.418Z,3.43
2018-11-29T08:50:42.500Z,3.35
2018-11-29T08:51:50.541Z,3.50
2018-11-29T08:52:58.609Z,3.48
2018-11-29T08:54:06.665Z,3.28
2018-11-29T08:55:14.736Z,3.15
2018-11-29T08:56:22.789Z,3.28
2018-11-29T08:57:30.835Z,3.32
2018-11-29T08:58:38.904Z,3.39
2018-11-29T08:59:46.969Z,3.39
2018-11-29T09:00:55.020Z,3.39
2018-11-29T09:02:03.105Z,3.48
2018-11-29T09:03:11.141Z,3.48
2018-11-29T09:04:19.180Z,3.47
2018-11-29T09:05:27.259Z,3.47
2018-11-29T09:06:35.329Z,3.32
2018-11-29T09:07:43.372Z,3.23
2018-11-29T09:08:51.424Z,3.40
2018-11-29T09:09:59.493Z,3.36
2018-11-29T09:11:07.553Z,3.52
2018-11-29T09:12:15.596Z,3.48
2018-11-29T09:13:23.739Z,3.55
2018-11-29T09:14:31.720Z,3.55
2018-11-29T09:15:39.772Z,3.68
2018-11-29T09:16:47.847Z,3.62
2018-11-29T09:17:55.906Z,3.48
2018-11-29T09:19:03.946Z,3.36
2018-11-29T09:20:12.021Z,3.45
2018-11-29T09:21:20.070Z,3.51
2018-11-29T09:22:28.143Z,3.42
2018-11-29T09:23:36.191Z,3.50
2018-11-29T09:24:44.248Z,3.60
2018-11-29T09:25:52.322Z,3.66
2018-11-29T09:27:00.415Z,3.76
2018-11-29T09:28:08.434Z,3.84
2018-11-29T09:29:16.502Z,3.94
2018-11-29T09:30:24.558Z,3.83
2018-11-29T09:31:32.627Z,3.80
2018-11-29T09:32:40.662Z,3.88
2018-11-29T09:33:48.744Z,3.79
2018-11-29T09:34:56.814Z,3.66
2018-11-29T09:36:04.878Z,3.73
2018-11-29T09:37:12.916Z,3.78
2018-11-29T09:38:20.968Z,3.80
2018-11-29T09:39:29.042Z,3.94
2018-11-29T09:40:37.090Z,3.94
2018-11-29T09:41:45.146Z,3.90
2018-11-29T09:42:53.194Z,3.88
2018-11-29T09:44:01.286Z,3.68
2018-11-29T09:45:09.328Z,3.52
2018-11-29T09:46:17.411Z,3.65
2018-11-29T09:47:25.464Z,3.72
2018-11-29T09:48:33.541Z,3.72
2018-11-29T09:49:41.562Z,3.76
2018-11-29T09:50:49.665Z,3.87
2018-11-29T09:51:57.673Z,3.90
2018-11-29T09:53:05.762Z,3.73
2018-11-29T09:54:13.801Z,3.60
2018-11-29T09:55:21.880Z,3.52
2018-11-29T09:56:29.931Z,3.52
2018-11-29T09:57:38.019Z,3.58
2018-11-29T09:58:46.024Z,3.65
2018-11-29T09:59:54.088Z,3.79
2018-11-29T10:01:02.163Z,3.88
2018-11-29T10:02:10.255Z,3.90
2018-11-29T10:03:18.286Z,3.91
2018-11-29T10:04:26.345Z,4.02
2018-11-29T10:05:34.381Z,3.87
2018-11-29T10:06:42.444Z,3.73
2018-11-29T10:07:50.514Z,3.87
2018-11-29T10:08:58.568Z,3.91
2018-11-29T10:10:06.632Z,3.96
2018-11-29T10:11:14.700Z,4.16
2018-11-29T10:12:22.746Z,4.15
2018-11-29T10:13:30.804Z,4.24
2018-11-29T10:14:38.872Z,4.23
2018-11-29T10:15:46.940Z,4.18
2018-11-29T10:16:55.065Z,4.04
2018-11-29T10:18:03.066Z,3.87
2018-11-29T10:19:11.119Z,3.97
2018-11-29T10:20:19.166Z,4.18
2018-11-29T10:21:27.237Z,4.11
2018-11-29T10:22:35.305Z,4.22
2018-11-29T10:23:43.353Z,4.18
2018-11-29T10:24:51.408Z,4.27
2018-11-29T10:25:59.505Z,4.37
2018-11-29T10:27:07.532Z,4.48
2018-11-29T10:28:15.587Z,4.52
2018-11-29T10:29:23.638Z,4.45
2018-11-29T10:30:31.748Z,4.50
2018-11-29T10:31:39.776Z,4.63
2018-11-29T10:32:47.844Z,4.70
2018-11-29T10:33:55.897Z,4.77
2018-11-29T10:35:03.939Z,4.67
2018-11-29T10:36:12.009Z,4.66
2018-11-29T10:37:20.062Z,4.47
2018-11-29T10:38:28.136Z,4.60
2018-11-29T10:39:36.216Z,4.59
2018-11-29T10:40:44.272Z,4.58
2018-11-29T10:41:52.320Z,4.45
2018-11-29T10:43:00.427Z,4.40
2018-11-29T10:44:08.435Z,4.37
2018-11-29T10:45:16.505Z,4.42
2018-11-29T10:46:24.578Z,4.51
2018-11-29T10:47:32.609Z,4.54
2018-11-29T10:48:40.705Z,4.60
2018-11-29T10:49:48.743Z,4.72
2018-11-29T10:50:56.799Z,4.75
2018-11-29T10:52:04.869Z,4.82
2018-11-29T10:53:12.998Z,4.73
2018-11-29T10:54:20.986Z,4.85
2018-11-29T10:55:29.033Z,4.84
2018-11-29T10:56:37.105Z,5.00
2018-11-29T10:57:45.171Z,5.18
2018-11-29T10:58:53.211Z,5.17
2018-11-29T11:00:01.290Z,5.33
2018-11-29T11:01:09.334Z,5.31
2018-11-29T11:02:17.403Z,5.39
2018-11-29T11:03:25.453Z,5.48
2018-11-29T11:04:33.532Z,5.54
2018-11-29T11:05:41.570Z,5.60
2018-11-29T11:06:49.670Z,5.72
2018-11-29T11:07:57.699Z,5.74
2018-11-29T11:09:05.758Z,5.79
2018-11-29T11:10:13.825Z,5.81
2018-11-29T11:11:21.864Z,5.99
2018-11-29T11:12:29.967Z,5.89
2018-11-29T11:13:38.016Z,5.94
2018-11-29T11:14:46.077Z,6.00
2018-11-29T11:15:54.131Z,6.12
2018-11-29T11:17:02.186Z,6.14
2018-11-29T11:18:10.262Z,6.27
2018-11-29T11:19:18.311Z,6.36
2018-11-29T11:20:26.373Z,6.38
2018-11-29T11:21:34.432Z,6.44
2018-11-29T11:22:42.502Z,6.41
2018-11-29T11:23:50.566Z,6.61
2018-11-29T11:24:58.609Z,6.52
2018-11-29T11:26:06.697Z,6.62
2018-11-29T11:27:14.737Z,6.62
2018-11-29T11:28:22.807Z,6.66
2018-11-29T11:29:30.866Z,6.67
2018-11-29T11:30:38.934Z,6.73
2018-11-29T11:31:46.991Z,6.79
2018-11-29T11:32:55.035Z,6.76
2018-11-29T11:34:03.096Z,6.89
2018-11-29T11:35:11.191Z,6.70
2018-11-29T11:36:19.242Z,6.62
2018-11-29T11:37:27.370Z,6.54
2018-11-29T11:38:35.354Z,6.55
2018-11-29T11:39:43.435Z,6.48
2018-11-29T11:40:51.499Z,6.48
2018-11-29T11:41:59.539Z,6.46
2018-11-29T11:43:07.648Z,6.52
2018-11-29T11:44:15.680Z,6.55
2018-11-29T11:45:23.729Z,6.52
2018-11-29T11:46:31.794Z,6.51
2018-11-29T11:47:39.858Z,6.49
2018-11-29T11:48:47.930Z,6.44
2018-11-29T11:49:55.985Z,6.55
2018-11-29T11:51:04.025Z,6.58
2018-11-29T11:52:12.110Z,6.52
2018-11-29T11:53:20.156Z,6.55
2018-11-29T11:54:28.219Z,6.52
2018-11-29T11:55:36.276Z,6.55
2018-11-29T11:56:44.356Z,6.52
2018-11-29T11:57:52.453Z,6.58
2018-11-29T11:59:00.490Z,6.62
2018-11-29T12:00:08.528Z,6.76
2018-11-29T12:01:16.581Z,6.71
2018-11-29T12:02:27.291Z,6.77
2018-11-29T12:03:32.716Z,6.88
2018-11-29T12:04:40.784Z,6.97
2018-11-29T12:05:48.834Z,6.94
2018-11-29T12:06:56.904Z,6.99
2018-11-29T12:08:04.956Z,6.99
2018-11-29T12:09:13.031Z,7.03
2018-11-29T12:10:21.082Z,7.03
2018-11-29T12:11:29.166Z,6.97
2018-11-29T12:12:37.187Z,6.92
2018-11-29T12:13:45.259Z,6.91
2018-11-29T12:14:53.320Z,6.89
2018-11-29T12:16:01.390Z,6.79
2018-11-29T12:17:09.444Z,6.77
2018-11-29T12:18:17.545Z,6.76
2018-11-29T12:19:25.626Z,6.69
2018-11-29T12:20:33.607Z,6.62
2018-11-29T12:21:41.701Z,6.73
2018-11-29T12:22:49.766Z,6.71
2018-11-29T12:23:57.828Z,6.69
2018-11-29T12:25:05.898Z,6.76
2018-11-29T12:26:13.939Z,6.80
2018-11-29T12:27:22.043Z,6.81
2018-11-29T12:28:30.055Z,6.76
2018-11-29T12:29:38.127Z,6.80
2018-11-29T12:30:46.215Z,6.79
2018-11-29T12:31:54.243Z,6.87
2018-11-29T12:33:02.323Z,6.97
2018-11-29T12:34:10.390Z,6.94
2018-11-29T12:35:18.438Z,7.03
2018-11-29T12:36:26.498Z,7.02
2018-11-29T12:37:34.571Z,7.16
2018-11-29T12:38:42.623Z,7.13
2018-11-29T12:39:50.701Z,7.25
2018-11-29T12:40:58.764Z,7.27
2018-11-29T12:42:06.808Z,7.21
2018-11-29T12:43:14.860Z,7.28
2018-11-29T12:44:23.022Z,7.23
2018-11-29T12:45:32.621Z,7.21
2018-11-29T12:46:40.686Z,7.27
2018-11-29T12:47:48.732Z,7.30
2018-11-29T12:48:56.786Z,7.40
2018-11-29T12:50:04.856Z,7.40
2018-11-29T12:51:13.299Z,7.39
2018-11-29T12:52:38.375Z,7.52
2018-11-29T12:53:31.045Z,7.52
2018-11-29T12:55:16.089Z,7.57
2018-11-29T12:56:33.051Z,7.57
2018-11-29T12:58:49.053Z,7.48
2018-11-29T12:59:55.419Z,7.52
2018-11-29T13:01:03.481Z,7.53
2018-11-29T13:02:11.542Z,7.37
2018-11-29T13:03:19.590Z,7.34
2018-11-29T13:04:27.653Z,7.34
2018-11-29T13:05:35.726Z,7.24
2018-11-29T13:06:43.764Z,6.99
2018-11-29T13:07:51.856Z,7.02
2018-11-29T13:08:59.906Z,6.88
2018-11-29T13:10:07.982Z,6.89
2018-11-29T13:11:16.021Z,7.03
2018-11-29T13:12:24.068Z,7.05
2018-11-29T13:13:32.153Z,7.10
2018-11-29T13:14:40.221Z,7.12
2018-11-29T13:15:48.284Z,7.06
2018-11-29T13:16:56.327Z,7.12
2018-11-29T13:18:04.384Z,7.09
2018-11-29T13:19:12.477Z,7.17
2018-11-29T13:20:20.515Z,7.13
2018-11-29T13:21:28.588Z,7.13
2018-11-29T13:22:36.663Z,7.15
2018-11-29T13:23:44.714Z,7.16
2018-11-29T13:24:52.761Z,7.16
2018-11-29T13:26:00.835Z,7.16
2018-11-29T13:27:08.888Z,7.10
2018-11-29T13:28:16.946Z,7.02
2018-11-29T13:29:25.009Z,6.95
2018-11-29T13:31:49.831Z,6.81
2018-11-29T13:33:08.765Z,6.77
2018-11-29T13:34:05.918Z,6.77
2018-11-29T13:35:13.979Z,6.88
2018-11-29T13:36:22.062Z,6.80
2018-11-29T13:37:30.110Z,6.76
2018-11-29T13:38:38.189Z,6.87
2018-11-29T13:39:46.257Z,6.97
2018-11-29T13:40:54.314Z,6.84
2018-11-29T13:42:02.370Z,6.81
2018-11-29T13:43:10.430Z,6.76
2018-11-29T13:44:18.495Z,6.70
2018-11-29T13:45:26.572Z,6.70
2018-11-29T13:46:34.606Z,6.70
2018-11-29T13:47:42.680Z,6.67
2018-11-29T13:48:50.758Z,6.69
2018-11-29T13:49:58.816Z,6.77
2018-11-29T13:51:06.844Z,6.59
2018-11-29T13:52:14.929Z,6.54
2018-11-29T13:53:23.011Z,6.48
2018-11-29T13:54:31.044Z,6.43
2018-11-29T13:55:39.228Z,6.46
2018-11-29T13:56:47.176Z,6.56
2018-11-29T13:57:55.255Z,6.55
2018-11-29T13:59:03.347Z,6.58
2018-11-29T14:00:11.342Z,6.51
2018-11-29T14:01:19.421Z,6.54
2018-11-29T14:02:27.475Z,6.49
2018-11-29T14:03:35.551Z,6.48
2018-11-29T14:04:43.600Z,6.44
2018-11-29T14:05:51.674Z,6.48
2018-11-29T14:06:59.718Z,6.41
2018-11-29T14:08:07.802Z,6.48
2018-11-29T14:09:15.846Z,6.46
2018-11-29T14:10:23.908Z,6.41
2018-11-29T14:11:31.981Z,6.41
2018-11-29T14:12:40.030Z,6.46
2018-11-29T14:13:48.087Z,6.36
2018-11-29T14:14:56.155Z,6.36
2018-11-29T14:16:04.208Z,6.34
2018-11-29T14:17:12.259Z,6.34
2018-11-29T14:18:20.339Z,6.25
2018-11-29T14:19:28.429Z,6.27
2018-11-29T14:20:36.458Z,6.19
2018-11-29T14:21:44.524Z,6.09
2018-11-29T14:22:52.591Z,6.08
2018-11-29T14:24:00.637Z,6.01
2018-11-29T14:25:08.716Z,6.09
2018-11-29T14:26:16.771Z,6.01
2018-11-29T14:27:24.827Z,5.94
2018-11-29T14:28:32.909Z,5.86
2018-11-29T14:29:40.954Z,5.94
2018-11-29T14:30:49.014Z,5.91
2018-11-29T14:31:57.083Z,6.00
2018-11-29T14:33:05.128Z,5.89
2018-11-29T14:34:13.174Z,5.89
2018-11-29T14:35:21.251Z,5.93
2018-11-29T14:36:29.295Z,5.85
2018-11-29T14:37:37.380Z,5.76
2018-11-29T14:38:45.460Z,5.72
2018-11-29T14:39:53.465Z,5.76
2018-11-29T14:41:01.557Z,5.74
2018-11-29T14:42:09.617Z,5.72
2018-11-29T14:43:17.667Z,5.65
2018-11-29T14:44:25.768Z,5.63
2018-11-29T14:45:33.784Z,5.58
2018-11-29T14:46:41.838Z,5.58
2018-11-29T14:47:49.923Z,5.60
2018-11-29T14:48:57.972Z,5.65
2018-11-29T14:50:06.036Z,5.60
2018-11-29T14:51:14.081Z,5.60
2018-11-29T14:52:22.143Z,5.57
2018-11-29T14:53:30.213Z,5.51
2018-11-29T14:54:38.268Z,5.53
2018-11-29T14:55:46.333Z,5.40
2018-11-29T14:56:54.417Z,5.35
2018-11-29T14:58:02.446Z,5.35
2018-11-29T14:59:10.511Z,5.39
2018-11-29T15:00:18.571Z,5.30
2018-11-29T15:01:26.636Z,5.31
2018-11-29T15:02:34.717Z,5.33
2018-11-29T15:03:42.769Z,5.33
2018-11-29T15:04:50.841Z,5.22
2018-11-29T15:05:58.886Z,5.18
2018-11-29T15:07:06.938Z,5.17
2018-11-29T15:08:14.989Z,5.12
2018-11-29T15:09:23.060Z,5.09